sensor_id;sensor_type;location;lat;lon;timestamp;P1;durP1;ratioP1;P2;durP2;ratioP2
20954;SDS011;10636;19.390;-99.256;2022-10-16T00:02:01;11.32;;;10.10;;
20954;SDS011;10636;19.390;-99.256;2022-10-16T00:04:31;10.98;;;9.88;;
20954;SDS011;10636;19.390;-99.256;2022-10-16T00:06:59;11.32;;;10.25;;
20954;SDS011;10636;19.390;-99.256;2022-10-16T00:09:28;11.05;;;9.90;;
20954;SDS011;10636;19.390;-99.256;2022-10-16T00:11:56;11.38;;;9.68;;
20954;SDS011;10636;19.390;-99.256;2022-10-16T00:14:25;10.80;;;9.55;;
20954;SDS011;10636;19.390;-99.256;2022-10-16T00:16:53;10.52;;;9.50;;
20954;SDS011;10636;19.390;-99.256;2022-10-16T00:19:22;9.88;;;8.90;;
20954;SDS011;10636;19.390;-99.256;2022-10-16T00:21:52;10.18;;;9.23;;
20954;SDS011;10636;19.390;-99.256;2022-10-16T00:24:20;10.90;;;9.05;;
20954;SDS011;10636;19.390;-99.256;2022-10-16T00:26:49;10.65;;;9.10;;
20954;SDS011;10636;19.390;-99.256;2022-10-16T00:29:18;9.80;;;8.80;;
20954;SDS011;10636;19.390;-99.256;2022-10-16T00:31:46;9.80;;;8.38;;
20954;SDS011;10636;19.390;-99.256;2022-10-16T00:34:14;9.45;;;8.52;;
20954;SDS011;10636;19.390;-99.256;2022-10-16T00:36:43;9.25;;;7.93;;
20954;SDS011;10636;19.390;-99.256;2022-10-16T00:39:13;8.68;;;7.88;;
20954;SDS011;10636;19.390;-99.256;2022-10-16T00:41:41;8.40;;;7.50;;
20954;SDS011;10636;19.390;-99.256;2022-10-16T00:47:17;8.27;;;7.47;;
20954;SDS011;10636;19.390;-99.256;2022-10-16T00:49:50;7.90;;;7.07;;
20954;SDS011;10636;19.390;-99.256;2022-10-16T00:52:23;7.95;;;7.18;;
20954;SDS011;10636;19.390;-99.256;2022-10-16T00:54:54;7.65;;;6.95;;
20954;SDS011;10636;19.390;-99.256;2022-10-16T00:57:23;8.00;;;6.90;;
20954;SDS011;10636;19.390;-99.256;2022-10-16T00:59:52;8.30;;;6.88;;
20954;SDS011;10636;19.390;-99.256;2022-10-16T01:02:21;7.28;;;6.28;;
20954;SDS011;10636;19.390;-99.256;2022-10-16T01:04:50;7.25;;;6.47;;
20954;SDS011;10636;19.390;-99.256;2022-10-16T01:07:24;7.22;;;6.50;;
20954;SDS011;10636;19.390;-99.256;2022-10-16T01:10:09;7.50;;;6.43;;
20954;SDS011;10636;19.390;-99.256;2022-10-16T01:12:45;7.50;;;6.07;;
20954;SDS011;10636;19.390;-99.256;2022-10-16T01:15:18;6.85;;;6.15;;
20954;SDS011;10636;19.390;-99.256;2022-10-16T01:17:53;6.40;;;5.15;;
20954;SDS011;10636;19.390;-99.256;2022-10-16T01:20:27;6.13;;;5.07;;
20954;SDS011;10636;19.390;-99.256;2022-10-16T01:23:06;6.05;;;5.15;;
20954;SDS011;10636;19.390;-99.256;2022-10-16T01:25:57;7.13;;;5.43;;
20954;SDS011;10636;19.390;-99.256;2022-10-16T01:28:41;5.75;;;4.90;;
20954;SDS011;10636;19.390;-99.256;2022-10-16T01:31:17;7.20;;;4.50;;
20954;SDS011;10636;19.390;-99.256;2022-10-16T01:33:51;7.32;;;5.00;;
20954;SDS011;10636;19.390;-99.256;2022-10-16T01:36:29;7.28;;;5.47;;
20954;SDS011;10636;19.390;-99.256;2022-10-16T01:39:03;8.60;;;5.95;;
20954;SDS011;10636;19.390;-99.256;2022-10-16T01:41:37;8.32;;;6.05;;
20954;SDS011;10636;19.390;-99.256;2022-10-16T01:44:10;7.03;;;5.85;;
20954;SDS011;10636;19.390;-99.256;2022-10-16T01:46:42;7.53;;;6.18;;
20954;SDS011;10636;19.390;-99.256;2022-10-16T01:49:13;7.35;;;6.03;;
20954;SDS011;10636;19.390;-99.256;2022-10-16T01:51:43;8.18;;;5.85;;
20954;SDS011;10636;19.390;-99.256;2022-10-16T01:54:14;6.82;;;5.50;;
20954;SDS011;10636;19.390;-99.256;2022-10-16T01:56:46;6.50;;;5.18;;
20954;SDS011;10636;19.390;-99.256;2022-10-16T01:59:19;6.10;;;5.50;;
20954;SDS011;10636;19.390;-99.256;2022-10-16T02:01:52;8.10;;;5.53;;
20954;SDS011;10636;19.390;-99.256;2022-10-16T02:04:23;7.30;;;6.05;;
20954;SDS011;10636;19.390;-99.256;2022-10-16T02:06:55;7.55;;;5.68;;
20954;SDS011;10636;19.390;-99.256;2022-10-16T02:09:23;8.77;;;5.18;;
20954;SDS011;10636;19.390;-99.256;2022-10-16T02:11:52;6.53;;;5.60;;
20954;SDS011;10636;19.390;-99.256;2022-10-16T02:14:26;6.72;;;5.15;;
20954;SDS011;10636;19.390;-99.256;2022-10-16T02:16:54;8.07;;;5.65;;
20954;SDS011;10636;19.390;-99.256;2022-10-16T02:19:23;7.00;;;5.50;;
20954;SDS011;10636;19.390;-99.256;2022-10-16T02:21:53;6.15;;;5.18;;
20954;SDS011;10636;19.390;-99.256;2022-10-16T02:24:24;7.60;;;5.85;;
20954;SDS011;10636;19.390;-99.256;2022-10-16T02:27:00;5.88;;;5.30;;
20954;SDS011;10636;19.390;-99.256;2022-10-16T02:29:36;6.70;;;5.53;;
20954;SDS011;10636;19.390;-99.256;2022-10-16T02:32:10;6.00;;;5.15;;
20954;SDS011;10636;19.390;-99.256;2022-10-16T02:34:40;6.07;;;5.47;;
20954;SDS011;10636;19.390;-99.256;2022-10-16T02:37:09;6.00;;;5.40;;
20954;SDS011;10636;19.390;-99.256;2022-10-16T02:39:39;6.50;;;5.72;;
20954;SDS011;10636;19.390;-99.256;2022-10-16T02:42:09;7.47;;;6.10;;
20954;SDS011;10636;19.390;-99.256;2022-10-16T02:44:40;8.88;;;5.95;;
20954;SDS011;10636;19.390;-99.256;2022-10-16T02:47:08;6.55;;;5.65;;
20954;SDS011;10636;19.390;-99.256;2022-10-16T02:49:38;7.97;;;6.20;;
20954;SDS011;10636;19.390;-99.256;2022-10-16T02:52:06;6.93;;;6.22;;
20954;SDS011;10636;19.390;-99.256;2022-10-16T02:54:35;7.03;;;6.03;;
20954;SDS011;10636;19.390;-99.256;2022-10-16T02:57:03;7.70;;;5.93;;
20954;SDS011;10636;19.390;-99.256;2022-10-16T02:59:31;6.90;;;5.32;;
20954;SDS011;10636;19.390;-99.256;2022-10-16T03:02:01;8.50;;;6.00;;
20954;SDS011;10636;19.390;-99.256;2022-10-16T03:04:30;7.18;;;6.13;;
20954;SDS011;10636;19.390;-99.256;2022-10-16T03:06:58;7.80;;;6.22;;
20954;SDS011;10636;19.390;-99.256;2022-10-16T03:09:27;7.82;;;6.43;;
20954;SDS011;10636;19.390;-99.256;2022-10-16T03:11:55;8.20;;;7.00;;
20954;SDS011;10636;19.390;-99.256;2022-10-16T03:14:24;7.85;;;6.97;;
20954;SDS011;10636;19.390;-99.256;2022-10-16T03:16:52;7.28;;;6.55;;
20954;SDS011;10636;19.390;-99.256;2022-10-16T03:19:22;8.73;;;6.20;;
20954;SDS011;10636;19.390;-99.256;2022-10-16T03:21:50;8.88;;;6.57;;
20954;SDS011;10636;19.390;-99.256;2022-10-16T03:24:19;9.35;;;6.53;;
20954;SDS011;10636;19.390;-99.256;2022-10-16T03:26:47;6.97;;;6.28;;
20954;SDS011;10636;19.390;-99.256;2022-10-16T03:29:15;10.73;;;6.60;;
20954;SDS011;10636;19.390;-99.256;2022-10-16T03:31:44;8.50;;;6.38;;
20954;SDS011;10636;19.390;-99.256;2022-10-16T03:34:14;6.97;;;6.30;;
20954;SDS011;10636;19.390;-99.256;2022-10-16T03:36:44;7.68;;;6.72;;
20954;SDS011;10636;19.390;-99.256;2022-10-16T03:39:12;9.10;;;6.53;;
20954;SDS011;10636;19.390;-99.256;2022-10-16T03:41:40;8.43;;;6.38;;
20954;SDS011;10636;19.390;-99.256;2022-10-16T03:44:09;7.13;;;6.07;;
20954;SDS011;10636;19.390;-99.256;2022-10-16T03:46:37;7.43;;;6.28;;
20954;SDS011;10636;19.390;-99.256;2022-10-16T03:49:06;7.68;;;6.47;;
20954;SDS011;10636;19.390;-99.256;2022-10-16T03:51:34;8.68;;;6.70;;
20954;SDS011;10636;19.390;-99.256;2022-10-16T03:54:04;6.90;;;6.25;;
20954;SDS011;10636;19.390;-99.256;2022-10-16T03:56:32;10.52;;;6.53;;
20954;SDS011;10636;19.390;-99.256;2022-10-16T03:59:01;7.72;;;6.70;;
20954;SDS011;10636;19.390;-99.256;2022-10-16T04:01:29;7.53;;;6.75;;
20954;SDS011;10636;19.390;-99.256;2022-10-16T04:03:58;7.20;;;6.50;;
20954;SDS011;10636;19.390;-99.256;2022-10-16T04:06:26;8.95;;;6.28;;
20954;SDS011;10636;19.390;-99.256;2022-10-16T04:08:54;7.35;;;6.63;;
20954;SDS011;10636;19.390;-99.256;2022-10-16T04:11:25;7.90;;;7.15;;
20954;SDS011;10636;19.390;-99.256;2022-10-16T04:13:53;7.43;;;6.72;;
20954;SDS011;10636;19.390;-99.256;2022-10-16T04:16:21;9.18;;;6.97;;
20954;SDS011;10636;19.390;-99.256;2022-10-16T04:18:50;8.55;;;6.40;;
20954;SDS011;10636;19.390;-99.256;2022-10-16T04:21:18;10.10;;;7.13;;
20954;SDS011;10636;19.390;-99.256;2022-10-16T04:23:47;8.20;;;7.40;;
20954;SDS011;10636;19.390;-99.256;2022-10-16T04:26:17;8.52;;;6.80;;
20954;SDS011;10636;19.390;-99.256;2022-10-16T04:28:47;7.70;;;6.93;;
20954;SDS011;10636;19.390;-99.256;2022-10-16T04:31:15;7.70;;;6.88;;
20954;SDS011;10636;19.390;-99.256;2022-10-16T04:33:44;9.40;;;7.20;;
20954;SDS011;10636;19.390;-99.256;2022-10-16T04:36:12;7.85;;;7.00;;
20954;SDS011;10636;19.390;-99.256;2022-10-16T04:38:46;7.40;;;6.70;;
20954;SDS011;10636;19.390;-99.256;2022-10-16T04:41:14;8.23;;;7.30;;
20954;SDS011;10636;19.390;-99.256;2022-10-16T04:43:47;7.88;;;7.07;;
20954;SDS011;10636;19.390;-99.256;2022-10-16T04:46:18;9.50;;;7.32;;
20954;SDS011;10636;19.390;-99.256;2022-10-16T04:48:46;8.68;;;7.25;;
20954;SDS011;10636;19.390;-99.256;2022-10-16T04:51:15;8.13;;;7.30;;
20954;SDS011;10636;19.390;-99.256;2022-10-16T04:54:04;7.65;;;6.85;;
20954;SDS011;10636;19.390;-99.256;2022-10-16T04:56:32;7.75;;;6.93;;
20954;SDS011;10636;19.390;-99.256;2022-10-16T04:59:15;7.63;;;6.97;;
20954;SDS011;10636;19.390;-99.256;2022-10-16T05:04:36;7.63;;;6.85;;
20954;SDS011;10636;19.390;-99.256;2022-10-16T05:07:05;9.82;;;7.05;;
20954;SDS011;10636;19.390;-99.256;2022-10-16T05:09:33;7.50;;;6.80;;
20954;SDS011;10636;19.390;-99.256;2022-10-16T05:12:02;8.32;;;7.10;;
20954;SDS011;10636;19.390;-99.256;2022-10-16T05:14:32;7.55;;;6.70;;
20954;SDS011;10636;19.390;-99.256;2022-10-16T05:17:02;7.05;;;6.45;;
20954;SDS011;10636;19.390;-99.256;2022-10-16T05:19:52;7.32;;;6.63;;
20954;SDS011;10636;19.390;-99.256;2022-10-16T05:22:21;7.45;;;6.75;;
20954;SDS011;10636;19.390;-99.256;2022-10-16T05:24:50;7.50;;;6.32;;
20954;SDS011;10636;19.390;-99.256;2022-10-16T05:27:18;7.32;;;6.63;;
20954;SDS011;10636;19.390;-99.256;2022-10-16T05:29:48;6.80;;;6.10;;
20954;SDS011;10636;19.390;-99.256;2022-10-16T05:32:17;8.52;;;6.70;;
20954;SDS011;10636;19.390;-99.256;2022-10-16T05:34:46;6.85;;;6.25;;
20954;SDS011;10636;19.390;-99.256;2022-10-16T05:37:14;7.15;;;6.45;;
20954;SDS011;10636;19.390;-99.256;2022-10-16T05:39:42;7.03;;;6.43;;
20954;SDS011;10636;19.390;-99.256;2022-10-16T05:42:11;7.07;;;6.47;;
20954;SDS011;10636;19.390;-99.256;2022-10-16T05:44:40;7.07;;;6.28;;
20954;SDS011;10636;19.390;-99.256;2022-10-16T05:47:10;6.57;;;5.88;;
20954;SDS011;10636;19.390;-99.256;2022-10-16T05:49:41;6.93;;;6.32;;
20954;SDS011;10636;19.390;-99.256;2022-10-16T05:52:09;6.93;;;6.22;;
20954;SDS011;10636;19.390;-99.256;2022-10-16T05:54:37;7.40;;;6.70;;
20954;SDS011;10636;19.390;-99.256;2022-10-16T05:57:06;6.88;;;6.28;;
20954;SDS011;10636;19.390;-99.256;2022-10-16T05:59:34;6.22;;;5.63;;
20954;SDS011;10636;19.390;-99.256;2022-10-16T06:02:03;6.70;;;6.00;;
20954;SDS011;10636;19.390;-99.256;2022-10-16T06:04:33;6.95;;;6.28;;
20954;SDS011;10636;19.390;-99.256;2022-10-16T06:07:02;6.63;;;6.03;;
20954;SDS011;10636;19.390;-99.256;2022-10-16T06:09:30;6.95;;;6.35;;
20954;SDS011;10636;19.390;-99.256;2022-10-16T06:11:59;6.93;;;6.35;;
20954;SDS011;10636;19.390;-99.256;2022-10-16T06:14:27;6.82;;;5.80;;
20954;SDS011;10636;19.390;-99.256;2022-10-16T06:16:55;6.88;;;5.75;;
20954;SDS011;10636;19.390;-99.256;2022-10-16T06:19:24;6.80;;;6.20;;
20954;SDS011;10636;19.390;-99.256;2022-10-16T06:21:54;6.90;;;6.30;;
20954;SDS011;10636;19.390;-99.256;2022-10-16T06:24:23;6.97;;;6.38;;
20954;SDS011;10636;19.390;-99.256;2022-10-16T06:26:52;6.40;;;5.90;;
20954;SDS011;10636;19.390;-99.256;2022-10-16T06:29:20;6.97;;;6.38;;
20954;SDS011;10636;19.390;-99.256;2022-10-16T06:31:48;6.15;;;5.55;;
20954;SDS011;10636;19.390;-99.256;2022-10-16T06:34:18;6.63;;;6.03;;
20954;SDS011;10636;19.390;-99.256;2022-10-16T06:36:46;7.22;;;6.53;;
20954;SDS011;10636;19.390;-99.256;2022-10-16T06:39:16;6.55;;;5.70;;
20954;SDS011;10636;19.390;-99.256;2022-10-16T06:41:45;6.30;;;5.80;;
20954;SDS011;10636;19.390;-99.256;2022-10-16T06:44:14;6.38;;;5.78;;
20954;SDS011;10636;19.390;-99.256;2022-10-16T06:46:43;6.80;;;6.20;;
20954;SDS011;10636;19.390;-99.256;2022-10-16T06:49:11;6.38;;;5.78;;
20954;SDS011;10636;19.390;-99.256;2022-10-16T06:51:46;6.57;;;5.97;;
20954;SDS011;10636;19.390;-99.256;2022-10-16T06:54:16;6.78;;;6.10;;
20954;SDS011;10636;19.390;-99.256;2022-10-16T06:56:45;6.53;;;5.95;;
20954;SDS011;10636;19.390;-99.256;2022-10-16T06:59:13;6.20;;;5.63;;
20954;SDS011;10636;19.390;-99.256;2022-10-16T07:01:41;6.50;;;5.90;;
20954;SDS011;10636;19.390;-99.256;2022-10-16T07:04:10;6.20;;;5.60;;
20954;SDS011;10636;19.390;-99.256;2022-10-16T07:06:39;6.85;;;6.35;;
20954;SDS011;10636;19.390;-99.256;2022-10-16T07:09:08;6.53;;;6.03;;
20954;SDS011;10636;19.390;-99.256;2022-10-16T07:11:39;6.65;;;6.05;;
20954;SDS011;10636;19.390;-99.256;2022-10-16T07:14:12;6.70;;;6.10;;
20954;SDS011;10636;19.390;-99.256;2022-10-16T07:16:43;6.57;;;5.97;;
20954;SDS011;10636;19.390;-99.256;2022-10-16T07:19:12;6.80;;;6.25;;
20954;SDS011;10636;19.390;-99.256;2022-10-16T07:21:43;7.05;;;5.82;;
20954;SDS011;10636;19.390;-99.256;2022-10-16T07:24:12;6.53;;;5.93;;
20954;SDS011;10636;19.390;-99.256;2022-10-16T07:26:43;6.10;;;5.60;;
20954;SDS011;10636;19.390;-99.256;2022-10-16T07:29:13;6.47;;;5.88;;
20954;SDS011;10636;19.390;-99.256;2022-10-16T07:31:43;6.97;;;6.32;;
20954;SDS011;10636;19.390;-99.256;2022-10-16T07:34:12;6.82;;;6.10;;
20954;SDS011;10636;19.390;-99.256;2022-10-16T07:36:41;6.70;;;6.10;;
20954;SDS011;10636;19.390;-99.256;2022-10-16T07:39:09;6.85;;;6.25;;
20954;SDS011;10636;19.390;-99.256;2022-10-16T07:41:37;6.47;;;5.95;;
20954;SDS011;10636;19.390;-99.256;2022-10-16T07:44:07;6.45;;;5.95;;
20954;SDS011;10636;19.390;-99.256;2022-10-16T07:46:36;7.07;;;6.40;;
20954;SDS011;10636;19.390;-99.256;2022-10-16T07:49:04;6.60;;;5.95;;
20954;SDS011;10636;19.390;-99.256;2022-10-16T07:51:33;7.03;;;6.32;;
20954;SDS011;10636;19.390;-99.256;2022-10-16T07:54:01;6.82;;;6.22;;
20954;SDS011;10636;19.390;-99.256;2022-10-16T07:56:30;6.72;;;6.13;;
20954;SDS011;10636;19.390;-99.256;2022-10-16T07:58:59;6.88;;;6.28;;
20954;SDS011;10636;19.390;-99.256;2022-10-16T08:01:29;7.00;;;6.35;;
20954;SDS011;10636;19.390;-99.256;2022-10-16T08:03:57;6.70;;;6.10;;
20954;SDS011;10636;19.390;-99.256;2022-10-16T08:06:26;7.60;;;7.00;;
20954;SDS011;10636;19.390;-99.256;2022-10-16T08:08:55;7.28;;;6.68;;
20954;SDS011;10636;19.390;-99.256;2022-10-16T08:11:25;6.97;;;6.38;;
20954;SDS011;10636;19.390;-99.256;2022-10-16T08:13:53;7.63;;;6.95;;
20954;SDS011;10636;19.390;-99.256;2022-10-16T08:16:22;7.10;;;6.40;;
20954;SDS011;10636;19.390;-99.256;2022-10-16T08:18:52;7.53;;;6.90;;
20954;SDS011;10636;19.390;-99.256;2022-10-16T08:21:20;7.68;;;7.07;;
20954;SDS011;10636;19.390;-99.256;2022-10-16T08:23:50;7.93;;;7.22;;
20954;SDS011;10636;19.390;-99.256;2022-10-16T08:26:20;7.45;;;6.75;;
20954;SDS011;10636;19.390;-99.256;2022-10-16T08:28:49;8.00;;;7.30;;
20954;SDS011;10636;19.390;-99.256;2022-10-16T08:31:18;7.13;;;6.53;;
20954;SDS011;10636;19.390;-99.256;2022-10-16T08:33:47;7.65;;;7.05;;
20954;SDS011;10636;19.390;-99.256;2022-10-16T08:36:17;7.88;;;7.22;;
20954;SDS011;10636;19.390;-99.256;2022-10-16T08:38:47;7.43;;;6.82;;
20954;SDS011;10636;19.390;-99.256;2022-10-16T08:41:20;7.55;;;6.85;;
20954;SDS011;10636;19.390;-99.256;2022-10-16T08:44:07;7.78;;;7.07;;
20954;SDS011;10636;19.390;-99.256;2022-10-16T08:46:52;8.38;;;7.65;;
20954;SDS011;10636;19.390;-99.256;2022-10-16T08:49:27;8.23;;;7.47;;
20954;SDS011;10636;19.390;-99.256;2022-10-16T08:51:59;7.50;;;6.80;;
20954;SDS011;10636;19.390;-99.256;2022-10-16T08:54:29;8.00;;;7.20;;
20954;SDS011;10636;19.390;-99.256;2022-10-16T08:57:07;7.95;;;7.35;;
20954;SDS011;10636;19.390;-99.256;2022-10-16T08:59:37;7.68;;;7.07;;
20954;SDS011;10636;19.390;-99.256;2022-10-16T09:02:12;8.00;;;7.28;;
20954;SDS011;10636;19.390;-99.256;2022-10-16T09:04:58;8.32;;;7.63;;
20954;SDS011;10636;19.390;-99.256;2022-10-16T09:07:43;7.82;;;7.13;;
20954;SDS011;10636;19.390;-99.256;2022-10-16T09:10:23;7.70;;;7.10;;
20954;SDS011;10636;19.390;-99.256;2022-10-16T09:13:02;8.20;;;7.40;;
20954;SDS011;10636;19.390;-99.256;2022-10-16T09:15:43;8.27;;;7.53;;
20954;SDS011;10636;19.390;-99.256;2022-10-16T09:18:22;7.93;;;7.20;;
20954;SDS011;10636;19.390;-99.256;2022-10-16T09:21:00;8.20;;;7.40;;
20954;SDS011;10636;19.390;-99.256;2022-10-16T09:23:36;8.60;;;7.90;;
20954;SDS011;10636;19.390;-99.256;2022-10-16T09:26:05;8.50;;;7.80;;
20954;SDS011;10636;19.390;-99.256;2022-10-16T09:28:39;9.25;;;8.45;;
20954;SDS011;10636;19.390;-99.256;2022-10-16T09:31:11;8.73;;;8.02;;
20954;SDS011;10636;19.390;-99.256;2022-10-16T09:33:45;8.57;;;7.70;;
20954;SDS011;10636;19.390;-99.256;2022-10-16T09:36:17;8.93;;;8.02;;
20954;SDS011;10636;19.390;-99.256;2022-10-16T09:38:49;9.57;;;8.68;;
20954;SDS011;10636;19.390;-99.256;2022-10-16T09:41:19;9.32;;;8.52;;
20954;SDS011;10636;19.390;-99.256;2022-10-16T09:43:52;8.48;;;7.70;;
20954;SDS011;10636;19.390;-99.256;2022-10-16T09:46:27;8.95;;;8.15;;
20954;SDS011;10636;19.390;-99.256;2022-10-16T09:48:57;8.52;;;7.72;;
20954;SDS011;10636;19.390;-99.256;2022-10-16T09:51:28;8.55;;;7.75;;
20954;SDS011;10636;19.390;-99.256;2022-10-16T09:53:59;8.75;;;7.85;;
20954;SDS011;10636;19.390;-99.256;2022-10-16T09:56:30;9.10;;;8.38;;
20954;SDS011;10636;19.390;-99.256;2022-10-16T09:59:00;9.40;;;8.60;;
20954;SDS011;10636;19.390;-99.256;2022-10-16T10:01:30;8.68;;;7.97;;
20954;SDS011;10636;19.390;-99.256;2022-10-16T10:04:04;9.32;;;8.52;;
20954;SDS011;10636;19.390;-99.256;2022-10-16T10:06:33;9.27;;;8.48;;
20954;SDS011;10636;19.390;-99.256;2022-10-16T10:09:06;9.23;;;8.45;;
20954;SDS011;10636;19.390;-99.256;2022-10-16T10:11:46;9.10;;;8.30;;
20954;SDS011;10636;19.390;-99.256;2022-10-16T10:17:10;8.98;;;8.18;;
20954;SDS011;10636;19.390;-99.256;2022-10-16T10:19:41;8.95;;;8.15;;
20954;SDS011;10636;19.390;-99.256;2022-10-16T10:22:15;8.65;;;7.95;;
20954;SDS011;10636;19.390;-99.256;2022-10-16T10:24:56;8.57;;;7.78;;
20954;SDS011;10636;19.390;-99.256;2022-10-16T10:27:41;8.90;;;8.20;;
20954;SDS011;10636;19.390;-99.256;2022-10-16T10:30:18;8.93;;;8.15;;
20954;SDS011;10636;19.390;-99.256;2022-10-16T10:32:54;8.75;;;8.00;;
20954;SDS011;10636;19.390;-99.256;2022-10-16T10:35:39;8.55;;;7.75;;
20954;SDS011;10636;19.390;-99.256;2022-10-16T10:38:22;8.18;;;7.38;;
20954;SDS011;10636;19.390;-99.256;2022-10-16T10:41:02;8.63;;;7.82;;
20954;SDS011;10636;19.390;-99.256;2022-10-16T10:43:46;8.05;;;7.28;;
20954;SDS011;10636;19.390;-99.256;2022-10-16T10:46:28;8.48;;;7.72;;
20954;SDS011;10636;19.390;-99.256;2022-10-16T10:49:06;8.63;;;7.93;;
20954;SDS011;10636;19.390;-99.256;2022-10-16T10:51:50;8.18;;;7.47;;
20954;SDS011;10636;19.390;-99.256;2022-10-16T10:54:26;8.48;;;7.78;;
20954;SDS011;10636;19.390;-99.256;2022-10-16T10:57:02;7.88;;;7.28;;
20954;SDS011;10636;19.390;-99.256;2022-10-16T10:59:41;8.30;;;7.50;;
20954;SDS011;10636;19.390;-99.256;2022-10-16T11:02:23;8.20;;;7.50;;
20954;SDS011;10636;19.390;-99.256;2022-10-16T11:08:07;8.13;;;7.47;;
20954;SDS011;10636;19.390;-99.256;2022-10-16T11:10:44;7.97;;;7.28;;
20954;SDS011;10636;19.390;-99.256;2022-10-16T11:13:23;8.07;;;7.38;;
20954;SDS011;10636;19.390;-99.256;2022-10-16T11:15:58;7.90;;;7.22;;
20954;SDS011;10636;19.390;-99.256;2022-10-16T11:18:32;7.53;;;6.93;;
20954;SDS011;10636;19.390;-99.256;2022-10-16T11:21:07;8.13;;;7.43;;
20954;SDS011;10636;19.390;-99.256;2022-10-16T11:23:40;7.40;;;6.78;;
20954;SDS011;10636;19.390;-99.256;2022-10-16T11:26:17;7.07;;;6.43;;
20954;SDS011;10636;19.390;-99.256;2022-10-16T11:28:50;7.82;;;7.13;;
20954;SDS011;10636;19.390;-99.256;2022-10-16T11:31:23;7.03;;;6.32;;
20954;SDS011;10636;19.390;-99.256;2022-10-16T11:33:59;6.97;;;6.38;;
20954;SDS011;10636;19.390;-99.256;2022-10-16T11:36:34;6.85;;;6.25;;
20954;SDS011;10636;19.390;-99.256;2022-10-16T11:39:09;7.10;;;6.50;;
20954;SDS011;10636;19.390;-99.256;2022-10-16T11:41:48;7.57;;;6.88;;
20954;SDS011;10636;19.390;-99.256;2022-10-16T11:44:27;7.25;;;6.65;;
20954;SDS011;10636;19.390;-99.256;2022-10-16T11:47:08;7.45;;;6.85;;
20954;SDS011;10636;19.390;-99.256;2022-10-16T11:49:44;7.50;;;6.90;;
20954;SDS011;10636;19.390;-99.256;2022-10-16T11:52:17;7.25;;;6.65;;
20954;SDS011;10636;19.390;-99.256;2022-10-16T11:54:54;7.32;;;6.72;;
20954;SDS011;10636;19.390;-99.256;2022-10-16T11:57:27;7.10;;;6.50;;
20954;SDS011;10636;19.390;-99.256;2022-10-16T12:00:02;6.90;;;6.30;;
20954;SDS011;10636;19.390;-99.256;2022-10-16T12:02:43;7.35;;;6.75;;
20954;SDS011;10636;19.390;-99.256;2022-10-16T12:05:19;6.72;;;6.13;;
20954;SDS011;10636;19.390;-99.256;2022-10-16T12:08:00;7.30;;;6.60;;
20954;SDS011;10636;19.390;-99.256;2022-10-16T12:10:35;7.90;;;7.20;;
20954;SDS011;10636;19.390;-99.256;2022-10-16T12:13:04;7.60;;;6.90;;
20954;SDS011;10636;19.390;-99.256;2022-10-16T12:15:34;7.90;;;7.10;;
20954;SDS011;10636;19.390;-99.256;2022-10-16T12:18:03;7.68;;;6.97;;
20954;SDS011;10636;19.390;-99.256;2022-10-16T12:20:32;7.68;;;7.07;;
20954;SDS011;10636;19.390;-99.256;2022-10-16T12:23:03;7.88;;;7.18;;
20954;SDS011;10636;19.390;-99.256;2022-10-16T12:25:33;7.95;;;7.25;;
20954;SDS011;10636;19.390;-99.256;2022-10-16T12:28:05;7.90;;;7.20;;
20954;SDS011;10636;19.390;-99.256;2022-10-16T12:30:53;8.60;;;7.82;;
20954;SDS011;10636;19.390;-99.256;2022-10-16T12:33:28;8.25;;;7.45;;
20954;SDS011;10636;19.390;-99.256;2022-10-16T12:35:58;8.20;;;7.40;;
20954;SDS011;10636;19.390;-99.256;2022-10-16T12:38:30;8.95;;;8.15;;
20954;SDS011;10636;19.390;-99.256;2022-10-16T12:41:06;9.00;;;8.23;;
20954;SDS011;10636;19.390;-99.256;2022-10-16T12:43:37;8.73;;;7.68;;
20954;SDS011;10636;19.390;-99.256;2022-10-16T12:46:22;8.52;;;7.78;;
20954;SDS011;10636;19.390;-99.256;2022-10-16T12:49:05;9.90;;;8.90;;
20954;SDS011;10636;19.390;-99.256;2022-10-16T12:51:50;8.48;;;7.57;;
20954;SDS011;10636;19.390;-99.256;2022-10-16T12:54:18;8.95;;;8.05;;
20954;SDS011;10636;19.390;-99.256;2022-10-16T12:56:56;9.13;;;8.30;;
20954;SDS011;10636;19.390;-99.256;2022-10-16T12:59:37;9.13;;;8.25;;
20954;SDS011;10636;19.390;-99.256;2022-10-16T13:02:21;9.88;;;8.85;;
20954;SDS011;10636;19.390;-99.256;2022-10-16T13:05:16;9.13;;;8.13;;
20954;SDS011;10636;19.390;-99.256;2022-10-16T13:08:02;10.77;;;8.13;;
20954;SDS011;10636;19.390;-99.256;2022-10-16T13:10:46;9.20;;;8.40;;
20954;SDS011;10636;19.390;-99.256;2022-10-16T13:13:33;9.73;;;8.77;;
20954;SDS011;10636;19.390;-99.256;2022-10-16T13:16:22;8.95;;;8.05;;
20954;SDS011;10636;19.390;-99.256;2022-10-16T13:19:03;9.30;;;8.40;;
20954;SDS011;10636;19.390;-99.256;2022-10-16T13:21:43;9.10;;;8.05;;
20954;SDS011;10636;19.390;-99.256;2022-10-16T13:24:22;9.88;;;8.98;;
20954;SDS011;10636;19.390;-99.256;2022-10-16T13:27:11;9.13;;;8.23;;
20954;SDS011;10636;19.390;-99.256;2022-10-16T13:29:50;9.77;;;8.85;;
20954;SDS011;10636;19.390;-99.256;2022-10-16T13:32:21;9.63;;;8.63;;
20954;SDS011;10636;19.390;-99.256;2022-10-16T13:34:52;9.23;;;8.32;;
20954;SDS011;10636;19.390;-99.256;2022-10-16T13:37:22;9.63;;;8.73;;
20954;SDS011;10636;19.390;-99.256;2022-10-16T13:40:02;10.35;;;9.32;;
20954;SDS011;10636;19.390;-99.256;2022-10-16T13:42:36;9.88;;;8.88;;
20954;SDS011;10636;19.390;-99.256;2022-10-16T13:45:05;10.32;;;9.00;;
20954;SDS011;10636;19.390;-99.256;2022-10-16T13:47:44;10.10;;;9.20;;
20954;SDS011;10636;19.390;-99.256;2022-10-16T13:50:15;10.50;;;9.02;;
20954;SDS011;10636;19.390;-99.256;2022-10-16T13:52:44;10.38;;;9.32;;
20954;SDS011;10636;19.390;-99.256;2022-10-16T13:55:13;9.85;;;9.00;;
20954;SDS011;10636;19.390;-99.256;2022-10-16T13:57:44;9.82;;;8.93;;
20954;SDS011;10636;19.390;-99.256;2022-10-16T14:00:20;10.07;;;9.13;;
20954;SDS011;10636;19.390;-99.256;2022-10-16T14:02:51;9.70;;;8.80;;
20954;SDS011;10636;19.390;-99.256;2022-10-16T14:05:26;9.98;;;9.07;;
20954;SDS011;10636;19.390;-99.256;2022-10-16T14:07:54;9.90;;;9.00;;
20954;SDS011;10636;19.390;-99.256;2022-10-16T14:10:25;9.40;;;8.50;;
20954;SDS011;10636;19.390;-99.256;2022-10-16T14:12:59;9.00;;;8.10;;
20954;SDS011;10636;19.390;-99.256;2022-10-16T14:15:29;10.05;;;8.95;;
20954;SDS011;10636;19.390;-99.256;2022-10-16T14:17:58;9.40;;;8.45;;
20954;SDS011;10636;19.390;-99.256;2022-10-16T14:20:29;9.35;;;8.45;;
20954;SDS011;10636;19.390;-99.256;2022-10-16T14:23:00;9.70;;;8.73;;
20954;SDS011;10636;19.390;-99.256;2022-10-16T14:25:30;9.30;;;8.50;;
20954;SDS011;10636;19.390;-99.256;2022-10-16T14:28:00;9.55;;;8.52;;
20954;SDS011;10636;19.390;-99.256;2022-10-16T14:30:30;10.10;;;8.98;;
20954;SDS011;10636;19.390;-99.256;2022-10-16T14:33:02;10.18;;;9.27;;
20954;SDS011;10636;19.390;-99.256;2022-10-16T14:35:34;10.95;;;9.85;;
20954;SDS011;10636;19.390;-99.256;2022-10-16T14:38:04;10.00;;;9.00;;
20954;SDS011;10636;19.390;-99.256;2022-10-16T14:40:34;10.73;;;9.70;;
20954;SDS011;10636;19.390;-99.256;2022-10-16T14:43:04;11.45;;;9.55;;
20954;SDS011;10636;19.390;-99.256;2022-10-16T14:45:33;10.52;;;9.52;;
20954;SDS011;10636;19.390;-99.256;2022-10-16T14:48:05;10.18;;;9.23;;
20954;SDS011;10636;19.390;-99.256;2022-10-16T14:50:46;11.85;;;9.50;;
20954;SDS011;10636;19.390;-99.256;2022-10-16T14:53:15;14.38;;;12.88;;
20954;SDS011;10636;19.390;-99.256;2022-10-16T14:55:43;15.05;;;13.65;;
20954;SDS011;10636;19.390;-99.256;2022-10-16T14:58:14;16.60;;;14.82;;
20954;SDS011;10636;19.390;-99.256;2022-10-16T15:00:44;18.52;;;16.75;;
20954;SDS011;10636;19.390;-99.256;2022-10-16T15:03:16;18.90;;;16.00;;